sensor_id;sensor_type;location;lat;lon;timestamp;P1;durP1;ratioP1;P2;durP2;ratioP2
3261;SDS011;1643;47.746;9.000;2023-12-04T00:00:15;18.90;;;8.70;;
3261;SDS011;1643;47.746;9.000;2023-12-04T00:02:41;18.00;;;9.60;;
3261;SDS011;1643;47.746;9.000;2023-12-04T00:05:07;18.47;;;9.60;;
3261;SDS011;1643;47.746;9.000;2023-12-04T00:07:33;18.30;;;8.93;;
3261;SDS011;1643;47.746;9.000;2023-12-04T00:09:59;15.50;;;8.60;;
3261;SDS011;1643;47.746;9.000;2023-12-04T00:12:24;13.40;;;7.10;;
3261;SDS011;1643;47.746;9.000;2023-12-04T00:14:50;13.67;;;7.00;;
3261;SDS011;1643;47.746;9.000;2023-12-04T00:17:16;13.90;;;8.27;;
3261;SDS011;1643;47.746;9.000;2023-12-04T00:19:42;16.17;;;7.93;;
3261;SDS011;1643;47.746;9.000;2023-12-04T00:22:07;17.63;;;9.00;;
3261;SDS011;1643;47.746;9.000;2023-12-04T00:24:33;15.37;;;9.00;;
3261;SDS011;1643;47.746;9.000;2023-12-04T00:26:58;18.00;;;8.37;;
3261;SDS011;1643;47.746;9.000;2023-12-04T00:29:24;15.03;;;7.87;;
3261;SDS011;1643;47.746;9.000;2023-12-04T00:31:50;17.57;;;10.60;;
3261;SDS011;1643;47.746;9.000;2023-12-04T00:34:15;15.83;;;8.43;;
3261;SDS011;1643;47.746;9.000;2023-12-04T00:36:41;17.30;;;8.63;;
3261;SDS011;1643;47.746;9.000;2023-12-04T00:39:06;19.27;;;8.80;;
3261;SDS011;1643;47.746;9.000;2023-12-04T00:41:33;19.53;;;8.80;;
3261;SDS011;1643;47.746;9.000;2023-12-04T00:43:59;14.60;;;8.50;;
3261;SDS011;1643;47.746;9.000;2023-12-04T00:46:24;21.63;;;9.97;;
3261;SDS011;1643;47.746;9.000;2023-12-04T00:48:50;16.43;;;7.13;;
3261;SDS011;1643;47.746;9.000;2023-12-04T00:51:16;15.90;;;9.53;;
3261;SDS011;1643;47.746;9.000;2023-12-04T00:53:42;20.13;;;10.00;;
3261;SDS011;1643;47.746;9.000;2023-12-04T00:56:08;17.20;;;9.17;;
3261;SDS011;1643;47.746;9.000;2023-12-04T00:58:34;13.17;;;7.43;;
3261;SDS011;1643;47.746;9.000;2023-12-04T01:01:00;10.60;;;6.50;;
3261;SDS011;1643;47.746;9.000;2023-12-04T01:03:25;16.13;;;8.67;;
3261;SDS011;1643;47.746;9.000;2023-12-04T01:05:52;13.70;;;7.87;;
3261;SDS011;1643;47.746;9.000;2023-12-04T01:08:18;15.70;;;8.43;;
3261;SDS011;1643;47.746;9.000;2023-12-04T01:10:44;15.23;;;8.13;;
3261;SDS011;1643;47.746;9.000;2023-12-04T01:13:09;15.60;;;8.20;;
3261;SDS011;1643;47.746;9.000;2023-12-04T01:15:35;18.60;;;9.40;;
3261;SDS011;1643;47.746;9.000;2023-12-04T01:18:01;17.33;;;8.83;;
3261;SDS011;1643;47.746;9.000;2023-12-04T01:20:27;23.30;;;9.20;;
3261;SDS011;1643;47.746;9.000;2023-12-04T01:22:53;17.50;;;9.27;;
3261;SDS011;1643;47.746;9.000;2023-12-04T01:25:19;20.47;;;11.13;;
3261;SDS011;1643;47.746;9.000;2023-12-04T01:27:44;18.13;;;9.30;;
3261;SDS011;1643;47.746;9.000;2023-12-04T01:30:10;16.60;;;9.23;;
3261;SDS011;1643;47.746;9.000;2023-12-04T01:32:36;17.77;;;9.13;;
3261;SDS011;1643;47.746;9.000;2023-12-04T01:35:02;21.83;;;10.50;;
3261;SDS011;1643;47.746;9.000;2023-12-04T01:37:28;20.90;;;10.83;;
3261;SDS011;1643;47.746;9.000;2023-12-04T01:39:53;20.90;;;9.93;;
3261;SDS011;1643;47.746;9.000;2023-12-04T01:42:19;21.43;;;11.03;;
3261;SDS011;1643;47.746;9.000;2023-12-04T01:44:45;15.50;;;8.17;;
3261;SDS011;1643;47.746;9.000;2023-12-04T01:47:10;19.17;;;9.70;;
3261;SDS011;1643;47.746;9.000;2023-12-04T01:49:36;18.17;;;9.70;;
3261;SDS011;1643;47.746;9.000;2023-12-04T01:52:02;16.47;;;8.87;;
3261;SDS011;1643;47.746;9.000;2023-12-04T01:54:29;20.43;;;10.33;;
3261;SDS011;1643;47.746;9.000;2023-12-04T01:56:55;17.70;;;8.50;;
3261;SDS011;1643;47.746;9.000;2023-12-04T01:59:21;20.20;;;9.80;;
3261;SDS011;1643;47.746;9.000;2023-12-04T02:01:47;21.20;;;9.70;;
3261;SDS011;1643;47.746;9.000;2023-12-04T02:04:13;18.67;;;8.67;;
3261;SDS011;1643;47.746;9.000;2023-12-04T02:06:40;15.13;;;8.43;;
3261;SDS011;1643;47.746;9.000;2023-12-04T02:09:06;17.63;;;9.47;;
3261;SDS011;1643;47.746;9.000;2023-12-04T02:11:34;14.70;;;8.00;;
3261;SDS011;1643;47.746;9.000;2023-12-04T02:14:00;17.67;;;9.07;;
3261;SDS011;1643;47.746;9.000;2023-12-04T02:16:26;17.37;;;9.60;;
3261;SDS011;1643;47.746;9.000;2023-12-04T02:18:53;18.43;;;9.93;;
3261;SDS011;1643;47.746;9.000;2023-12-04T02:21:18;15.33;;;8.07;;
3261;SDS011;1643;47.746;9.000;2023-12-04T02:23:48;16.13;;;9.00;;
3261;SDS011;1643;47.746;9.000;2023-12-04T02:26:15;17.30;;;9.07;;
3261;SDS011;1643;47.746;9.000;2023-12-04T02:28:44;18.10;;;9.27;;
3261;SDS011;1643;47.746;9.000;2023-12-04T02:31:19;19.00;;;8.67;;
3261;SDS011;1643;47.746;9.000;2023-12-04T02:33:46;18.93;;;9.17;;
3261;SDS011;1643;47.746;9.000;2023-12-04T02:36:17;18.13;;;9.70;;
3261;SDS011;1643;47.746;9.000;2023-12-04T02:38:44;16.17;;;9.10;;
3261;SDS011;1643;47.746;9.000;2023-12-04T02:41:10;18.83;;;9.53;;
3261;SDS011;1643;47.746;9.000;2023-12-04T02:43:36;15.57;;;8.33;;
3261;SDS011;1643;47.746;9.000;2023-12-04T02:46:02;18.87;;;8.63;;
3261;SDS011;1643;47.746;9.000;2023-12-04T02:48:28;18.93;;;9.40;;
3261;SDS011;1643;47.746;9.000;2023-12-04T02:50:53;18.57;;;9.63;;
3261;SDS011;1643;47.746;9.000;2023-12-04T02:53:19;20.40;;;9.73;;
3261;SDS011;1643;47.746;9.000;2023-12-04T02:55:44;25.37;;;10.80;;
3261;SDS011;1643;47.746;9.000;2023-12-04T02:58:10;21.80;;;11.07;;
3261;SDS011;1643;47.746;9.000;2023-12-04T03:00:36;19.50;;;10.70;;
3261;SDS011;1643;47.746;9.000;2023-12-04T03:03:01;19.90;;;9.57;;
3261;SDS011;1643;47.746;9.000;2023-12-04T03:05:27;22.90;;;10.23;;
3261;SDS011;1643;47.746;9.000;2023-12-04T03:07:52;19.50;;;9.43;;
3261;SDS011;1643;47.746;9.000;2023-12-04T03:10:18;24.73;;;11.20;;
3261;SDS011;1643;47.746;9.000;2023-12-04T03:12:44;21.50;;;9.53;;
3261;SDS011;1643;47.746;9.000;2023-12-04T03:15:09;17.93;;;10.10;;
3261;SDS011;1643;47.746;9.000;2023-12-04T03:17:36;18.87;;;9.17;;
3261;SDS011;1643;47.746;9.000;2023-12-04T03:20:02;18.00;;;10.20;;
3261;SDS011;1643;47.746;9.000;2023-12-04T03:22:29;19.53;;;10.03;;
3261;SDS011;1643;47.746;9.000;2023-12-04T03:24:55;20.37;;;9.80;;
3261;SDS011;1643;47.746;9.000;2023-12-04T03:27:20;24.00;;;10.33;;
3261;SDS011;1643;47.746;9.000;2023-12-04T03:29:46;23.10;;;11.20;;
3261;SDS011;1643;47.746;9.000;2023-12-04T03:32:12;23.10;;;11.00;;
3261;SDS011;1643;47.746;9.000;2023-12-04T03:34:37;23.07;;;9.40;;
3261;SDS011;1643;47.746;9.000;2023-12-04T03:37:03;21.10;;;9.00;;
3261;SDS011;1643;47.746;9.000;2023-12-04T03:39:29;23.30;;;10.17;;
3261;SDS011;1643;47.746;9.000;2023-12-04T03:41:54;25.63;;;11.20;;
3261;SDS011;1643;47.746;9.000;2023-12-04T03:44:20;25.70;;;10.40;;
3261;SDS011;1643;47.746;9.000;2023-12-04T03:46:45;22.27;;;10.70;;
3261;SDS011;1643;47.746;9.000;2023-12-04T03:49:11;19.30;;;9.67;;
3261;SDS011;1643;47.746;9.000;2023-12-04T03:51:37;16.93;;;9.40;;
3261;SDS011;1643;47.746;9.000;2023-12-04T03:54:02;21.23;;;9.10;;
3261;SDS011;1643;47.746;9.000;2023-12-04T03:56:28;27.53;;;10.97;;
3261;SDS011;1643;47.746;9.000;2023-12-04T03:58:53;20.40;;;9.40;;
3261;SDS011;1643;47.746;9.000;2023-12-04T04:01:19;20.57;;;9.50;;
3261;SDS011;1643;47.746;9.000;2023-12-04T04:03:45;17.23;;;8.90;;
3261;SDS011;1643;47.746;9.000;2023-12-04T04:06:11;20.50;;;10.13;;
3261;SDS011;1643;47.746;9.000;2023-12-04T04:08:36;22.70;;;11.87;;
3261;SDS011;1643;47.746;9.000;2023-12-04T04:11:02;17.63;;;9.63;;
3261;SDS011;1643;47.746;9.000;2023-12-04T04:13:28;21.17;;;9.87;;
3261;SDS011;1643;47.746;9.000;2023-12-04T04:15:53;17.13;;;8.70;;
3261;SDS011;1643;47.746;9.000;2023-12-04T04:18:19;19.37;;;10.27;;
3261;SDS011;1643;47.746;9.000;2023-12-04T04:20:45;20.97;;;10.47;;
3261;SDS011;1643;47.746;9.000;2023-12-04T04:23:10;18.93;;;10.30;;
3261;SDS011;1643;47.746;9.000;2023-12-04T04:25:36;24.13;;;11.50;;
3261;SDS011;1643;47.746;9.000;2023-12-04T04:28:02;23.33;;;11.50;;
3261;SDS011;1643;47.746;9.000;2023-12-04T04:30:28;18.97;;;9.13;;
3261;SDS011;1643;47.746;9.000;2023-12-04T04:32:53;20.10;;;9.93;;
3261;SDS011;1643;47.746;9.000;2023-12-04T04:35:19;22.13;;;11.07;;
3261;SDS011;1643;47.746;9.000;2023-12-04T04:37:44;18.50;;;9.17;;
3261;SDS011;1643;47.746;9.000;2023-12-04T04:40:10;25.33;;;11.57;;
3261;SDS011;1643;47.746;9.000;2023-12-04T04:42:36;28.23;;;12.70;;
3261;SDS011;1643;47.746;9.000;2023-12-04T04:45:01;18.13;;;9.07;;
3261;SDS011;1643;47.746;9.000;2023-12-04T04:47:27;14.13;;;7.60;;
3261;SDS011;1643;47.746;9.000;2023-12-04T04:49:53;22.97;;;9.70;;
3261;SDS011;1643;47.746;9.000;2023-12-04T04:52:18;25.53;;;10.40;;
3261;SDS011;1643;47.746;9.000;2023-12-04T04:54:44;23.73;;;11.40;;
3261;SDS011;1643;47.746;9.000;2023-12-04T04:57:10;18.37;;;9.90;;
3261;SDS011;1643;47.746;9.000;2023-12-04T04:59:35;21.10;;;10.00;;
3261;SDS011;1643;47.746;9.000;2023-12-04T05:02:01;22.40;;;9.93;;
3261;SDS011;1643;47.746;9.000;2023-12-04T05:04:26;22.13;;;10.60;;
3261;SDS011;1643;47.746;9.000;2023-12-04T05:06:53;26.17;;;11.90;;
3261;SDS011;1643;47.746;9.000;2023-12-04T05:09:18;22.93;;;11.20;;
3261;SDS011;1643;47.746;9.000;2023-12-04T05:11:44;24.40;;;10.17;;
3261;SDS011;1643;47.746;9.000;2023-12-04T05:14:10;24.60;;;10.33;;
3261;SDS011;1643;47.746;9.000;2023-12-04T05:16:35;22.10;;;10.63;;
3261;SDS011;1643;47.746;9.000;2023-12-04T05:19:01;24.83;;;9.60;;
3261;SDS011;1643;47.746;9.000;2023-12-04T05:21:27;23.50;;;10.83;;
3261;SDS011;1643;47.746;9.000;2023-12-04T05:23:52;28.37;;;13.20;;
3261;SDS011;1643;47.746;9.000;2023-12-04T05:26:18;25.47;;;10.00;;
3261;SDS011;1643;47.746;9.000;2023-12-04T05:28:43;22.03;;;9.93;;
3261;SDS011;1643;47.746;9.000;2023-12-04T05:31:09;24.27;;;10.90;;
3261;SDS011;1643;47.746;9.000;2023-12-04T05:33:35;26.40;;;12.13;;
3261;SDS011;1643;47.746;9.000;2023-12-04T05:36:00;25.70;;;12.27;;
3261;SDS011;1643;47.746;9.000;2023-12-04T05:38:26;25.13;;;11.40;;
3261;SDS011;1643;47.746;9.000;2023-12-04T05:40:52;22.87;;;10.40;;
3261;SDS011;1643;47.746;9.000;2023-12-04T05:43:19;23.43;;;11.77;;
3261;SDS011;1643;47.746;9.000;2023-12-04T05:45:45;27.37;;;12.30;;
3261;SDS011;1643;47.746;9.000;2023-12-04T05:48:10;23.30;;;11.43;;
3261;SDS011;1643;47.746;9.000;2023-12-04T05:50:36;30.00;;;12.63;;
3261;SDS011;1643;47.746;9.000;2023-12-04T05:53:02;25.43;;;11.70;;
3261;SDS011;1643;47.746;9.000;2023-12-04T05:55:27;28.53;;;13.10;;
3261;SDS011;1643;47.746;9.000;2023-12-04T05:57:53;27.33;;;12.60;;
3261;SDS011;1643;47.746;9.000;2023-12-04T06:00:19;27.60;;;12.43;;
3261;SDS011;1643;47.746;9.000;2023-12-04T06:02:44;30.80;;;11.83;;
3261;SDS011;1643;47.746;9.000;2023-12-04T06:05:10;26.27;;;11.47;;
3261;SDS011;1643;47.746;9.000;2023-12-04T06:07:36;26.00;;;12.07;;
3261;SDS011;1643;47.746;9.000;2023-12-04T06:10:03;27.37;;;12.50;;
3261;SDS011;1643;47.746;9.000;2023-12-04T06:12:30;28.17;;;13.70;;
3261;SDS011;1643;47.746;9.000;2023-12-04T06:14:56;25.40;;;11.43;;
3261;SDS011;1643;47.746;9.000;2023-12-04T06:17:23;31.87;;;12.90;;
3261;SDS011;1643;47.746;9.000;2023-12-04T06:19:49;28.40;;;11.17;;
3261;SDS011;1643;47.746;9.000;2023-12-04T06:22:14;35.47;;;14.37;;
3261;SDS011;1643;47.746;9.000;2023-12-04T06:24:43;26.23;;;11.97;;
3261;SDS011;1643;47.746;9.000;2023-12-04T06:27:10;32.23;;;11.90;;
3261;SDS011;1643;47.746;9.000;2023-12-04T06:29:41;31.67;;;13.23;;
3261;SDS011;1643;47.746;9.000;2023-12-04T06:32:07;25.23;;;11.40;;
3261;SDS011;1643;47.746;9.000;2023-12-04T06:34:33;33.40;;;11.60;;
3261;SDS011;1643;47.746;9.000;2023-12-04T06:36:59;35.50;;;14.87;;
3261;SDS011;1643;47.746;9.000;2023-12-04T06:39:34;30.93;;;14.30;;
3261;SDS011;1643;47.746;9.000;2023-12-04T06:42:01;31.43;;;12.70;;
3261;SDS011;1643;47.746;9.000;2023-12-04T06:44:27;28.83;;;14.33;;
3261;SDS011;1643;47.746;9.000;2023-12-04T06:46:53;30.80;;;14.10;;
3261;SDS011;1643;47.746;9.000;2023-12-04T06:49:20;31.37;;;13.07;;
3261;SDS011;1643;47.746;9.000;2023-12-04T06:51:46;30.77;;;12.27;;
3261;SDS011;1643;47.746;9.000;2023-12-04T06:54:12;30.73;;;14.83;;
3261;SDS011;1643;47.746;9.000;2023-12-04T06:56:38;30.10;;;13.23;;
3261;SDS011;1643;47.746;9.000;2023-12-04T06:59:04;32.13;;;13.00;;
3261;SDS011;1643;47.746;9.000;2023-12-04T07:01:29;26.67;;;11.43;;
3261;SDS011;1643;47.746;9.000;2023-12-04T07:03:55;31.63;;;13.23;;
3261;SDS011;1643;47.746;9.000;2023-12-04T07:06:21;31.23;;;14.23;;
3261;SDS011;1643;47.746;9.000;2023-12-04T07:08:46;35.20;;;15.10;;
3261;SDS011;1643;47.746;9.000;2023-12-04T07:11:12;35.57;;;14.03;;
3261;SDS011;1643;47.746;9.000;2023-12-04T07:13:40;31.97;;;14.50;;
3261;SDS011;1643;47.746;9.000;2023-12-04T07:16:07;32.13;;;14.73;;
3261;SDS011;1643;47.746;9.000;2023-12-04T07:18:33;26.47;;;12.87;;
3261;SDS011;1643;47.746;9.000;2023-12-04T07:20:59;34.30;;;14.07;;
3261;SDS011;1643;47.746;9.000;2023-12-04T07:23:25;35.57;;;15.70;;
3261;SDS011;1643;47.746;9.000;2023-12-04T07:25:51;33.87;;;11.63;;
3261;SDS011;1643;47.746;9.000;2023-12-04T07:28:17;30.27;;;12.80;;
3261;SDS011;1643;47.746;9.000;2023-12-04T07:30:43;28.87;;;11.70;;
3261;SDS011;1643;47.746;9.000;2023-12-04T07:33:09;30.10;;;14.30;;
3261;SDS011;1643;47.746;9.000;2023-12-04T07:35:34;27.93;;;12.23;;
3261;SDS011;1643;47.746;9.000;2023-12-04T07:38:00;36.33;;;13.30;;
3261;SDS011;1643;47.746;9.000;2023-12-04T07:40:25;28.83;;;11.13;;
3261;SDS011;1643;47.746;9.000;2023-12-04T07:42:51;27.47;;;11.80;;
3261;SDS011;1643;47.746;9.000;2023-12-04T07:45:17;30.07;;;12.97;;
3261;SDS011;1643;47.746;9.000;2023-12-04T07:47:43;35.00;;;13.47;;
3261;SDS011;1643;47.746;9.000;2023-12-04T07:50:08;32.73;;;13.27;;
3261;SDS011;1643;47.746;9.000;2023-12-04T07:52:34;33.87;;;13.07;;
3261;SDS011;1643;47.746;9.000;2023-12-04T07:55:00;33.17;;;14.33;;
3261;SDS011;1643;47.746;9.000;2023-12-04T07:57:25;37.90;;;13.57;;
3261;SDS011;1643;47.746;9.000;2023-12-04T07:59:51;39.60;;;15.63;;
3261;SDS011;1643;47.746;9.000;2023-12-04T08:02:18;36.33;;;14.77;;
3261;SDS011;1643;47.746;9.000;2023-12-04T08:04:44;38.63;;;15.93;;
3261;SDS011;1643;47.746;9.000;2023-12-04T08:07:09;33.97;;;13.40;;
3261;SDS011;1643;47.746;9.000;2023-12-04T08:09:35;34.53;;;14.63;;
3261;SDS011;1643;47.746;9.000;2023-12-04T08:12:00;33.73;;;13.57;;
3261;SDS011;1643;47.746;9.000;2023-12-04T08:14:26;38.77;;;15.10;;
3261;SDS011;1643;47.746;9.000;2023-12-04T08:16:53;28.73;;;13.00;;
3261;SDS011;1643;47.746;9.000;2023-12-04T08:19:19;27.83;;;12.43;;
3261;SDS011;1643;47.746;9.000;2023-12-04T08:21:44;27.90;;;12.77;;
3261;SDS011;1643;47.746;9.000;2023-12-04T08:24:10;25.23;;;10.90;;
3261;SDS011;1643;47.746;9.000;2023-12-04T08:26:35;29.13;;;11.97;;
3261;SDS011;1643;47.746;9.000;2023-12-04T08:29:01;31.93;;;14.50;;
3261;SDS011;1643;47.746;9.000;2023-12-04T08:31:27;35.77;;;14.60;;
3261;SDS011;1643;47.746;9.000;2023-12-04T08:33:53;26.90;;;12.17;;
3261;SDS011;1643;47.746;9.000;2023-12-04T08:36:19;29.90;;;12.83;;
3261;SDS011;1643;47.746;9.000;2023-12-04T08:38:45;32.20;;;13.57;;
3261;SDS011;1643;47.746;9.000;2023-12-04T08:41:11;32.10;;;14.17;;
3261;SDS011;1643;47.746;9.000;2023-12-04T08:43:37;24.63;;;11.20;;
3261;SDS011;1643;47.746;9.000;2023-12-04T08:46:02;29.90;;;13.10;;
3261;SDS011;1643;47.746;9.000;2023-12-04T08:48:28;38.60;;;16.63;;
3261;SDS011;1643;47.746;9.000;2023-12-04T08:50:54;29.83;;;13.83;;
3261;SDS011;1643;47.746;9.000;2023-12-04T08:53:20;31.83;;;13.47;;
3261;SDS011;1643;47.746;9.000;2023-12-04T08:55:46;28.83;;;12.67;;
3261;SDS011;1643;47.746;9.000;2023-12-04T08:58:12;35.53;;;14.27;;
3261;SDS011;1643;47.746;9.000;2023-12-04T09:00:37;35.40;;;13.80;;
3261;SDS011;1643;47.746;9.000;2023-12-04T09:03:07;45.77;;;19.70;;
3261;SDS011;1643;47.746;9.000;2023-12-04T09:05:34;36.03;;;15.33;;
3261;SDS011;1643;47.746;9.000;2023-12-04T09:07:59;43.90;;;17.57;;
3261;SDS011;1643;47.746;9.000;2023-12-04T09:10:25;30.50;;;14.17;;
3261;SDS011;1643;47.746;9.000;2023-12-04T09:12:51;35.23;;;14.80;;
3261;SDS011;1643;47.746;9.000;2023-12-04T09:15:16;34.90;;;14.17;;
3261;SDS011;1643;47.746;9.000;2023-12-04T09:17:42;32.30;;;15.80;;
3261;SDS011;1643;47.746;9.000;2023-12-04T09:20:08;36.97;;;13.60;;
3261;SDS011;1643;47.746;9.000;2023-12-04T09:22:34;43.83;;;17.10;;
3261;SDS011;1643;47.746;9.000;2023-12-04T09:25:03;34.40;;;13.07;;
3261;SDS011;1643;47.746;9.000;2023-12-04T09:27:33;25.23;;;10.80;;
3261;SDS011;1643;47.746;9.000;2023-12-04T09:30:00;37.47;;;14.90;;
3261;SDS011;1643;47.746;9.000;2023-12-04T09:32:26;34.53;;;17.07;;
3261;SDS011;1643;47.746;9.000;2023-12-04T09:34:51;26.50;;;12.03;;
3261;SDS011;1643;47.746;9.000;2023-12-04T09:37:17;31.40;;;13.70;;
3261;SDS011;1643;47.746;9.000;2023-12-04T09:39:43;37.17;;;15.00;;
3261;SDS011;1643;47.746;9.000;2023-12-04T09:42:08;30.13;;;12.53;;
3261;SDS011;1643;47.746;9.000;2023-12-04T09:44:36;31.53;;;13.00;;
3261;SDS011;1643;47.746;9.000;2023-12-04T09:47:02;28.73;;;13.23;;
3261;SDS011;1643;47.746;9.000;2023-12-04T09:49:29;31.93;;;14.03;;
3261;SDS011;1643;47.746;9.000;2023-12-04T09:51:59;28.00;;;13.50;;
3261;SDS011;1643;47.746;9.000;2023-12-04T09:54:26;27.07;;;11.47;;
3261;SDS011;1643;47.746;9.000;2023-12-04T09:56:52;32.50;;;13.40;;
3261;SDS011;1643;47.746;9.000;2023-12-04T09:59:18;31.10;;;14.93;;
3261;SDS011;1643;47.746;9.000;2023-12-04T10:01:51;43.40;;;18.13;;
3261;SDS011;1643;47.746;9.000;2023-12-04T10:04:17;29.33;;;15.40;;
3261;SDS011;1643;47.746;9.000;2023-12-04T10:06:43;28.23;;;13.07;;
3261;SDS011;1643;47.746;9.000;2023-12-04T10:09:10;29.13;;;12.90;;
3261;SDS011;1643;47.746;9.000;2023-12-04T10:11:41;36.73;;;14.57;;
3261;SDS011;1643;47.746;9.000;2023-12-04T10:14:17;32.07;;;12.93;;
3261;SDS011;1643;47.746;9.000;2023-12-04T10:16:44;32.90;;;14.17;;
3261;SDS011;1643;47.746;9.000;2023-12-04T10:19:14;30.10;;;13.20;;
3261;SDS011;1643;47.746;9.000;2023-12-04T10:21:54;32.83;;;13.70;;
3261;SDS011;1643;47.746;9.000;2023-12-04T10:24:26;32.87;;;13.60;;
3261;SDS011;1643;47.746;9.000;2023-12-04T10:26:57;44.67;;;18.90;;
3261;SDS011;1643;47.746;9.000;2023-12-04T10:29:23;31.60;;;14.67;;
3261;SDS011;1643;47.746;9.000;2023-12-04T10:31:51;31.50;;;15.23;;
3261;SDS011;1643;47.746;9.000;2023-12-04T10:34:20;31.77;;;13.83;;
3261;SDS011;1643;47.746;9.000;2023-12-04T10:36:46;33.80;;;15.13;;
3261;SDS011;1643;47.746;9.000;2023-12-04T10:39:12;34.43;;;15.80;;
3261;SDS011;1643;47.746;9.000;2023-12-04T10:41:42;29.73;;;13.00;;
3261;SDS011;1643;47.746;9.000;2023-12-04T10:44:08;29.90;;;14.63;;
3261;SDS011;1643;47.746;9.000;2023-12-04T10:46:35;23.00;;;11.00;;
3261;SDS011;1643;47.746;9.000;2023-12-04T10:49:03;27.33;;;11.90;;
3261;SDS011;1643;47.746;9.000;2023-12-04T10:51:29;34.83;;;17.03;;
3261;SDS011;1643;47.746;9.000;2023-12-04T10:53:55;32.80;;;15.77;;
3261;SDS011;1643;47.746;9.000;2023-12-04T10:56:30;26.67;;;12.77;;
3261;SDS011;1643;47.746;9.000;2023-12-04T10:59:03;26.13;;;11.87;;
3261;SDS011;1643;47.746;9.000;2023-12-04T11:01:40;27.47;;;13.10;;
3261;SDS011;1643;47.746;9.000;2023-12-04T11:04:10;27.00;;;11.73;;
3261;SDS011;1643;47.746;9.000;2023-12-04T11:06:39;26.80;;;12.00;;
3261;SDS011;1643;47.746;9.000;2023-12-04T11:09:07;34.40;;;13.93;;
3261;SDS011;1643;47.746;9.000;2023-12-04T11:11:35;26.57;;;12.60;;
3261;SDS011;1643;47.746;9.000;2023-12-04T11:14:05;28.37;;;11.97;;
3261;SDS011;1643;47.746;9.000;2023-12-04T11:16:43;24.47;;;12.37;;
3261;SDS011;1643;47.746;9.000;2023-12-04T11:22:03;25.67;;;11.80;;
3261;SDS011;1643;47.746;9.000;2023-12-04T11:24:31;28.63;;;12.23;;
3261;SDS011;1643;47.746;9.000;2023-12-04T11:26:57;28.10;;;11.93;;
3261;SDS011;1643;47.746;9.000;2023-12-04T11:29:23;21.93;;;10.10;;
3261;SDS011;1643;47.746;9.000;2023-12-04T11:31:50;35.30;;;14.30;;
3261;SDS011;1643;47.746;9.000;2023-12-04T11:34:16;25.70;;;13.53;;
3261;SDS011;1643;47.746;9.000;2023-12-04T11:36:41;26.77;;;12.10;;
3261;SDS011;1643;47.746;9.000;2023-12-04T11:39:09;31.57;;;14.63;;
3261;SDS011;1643;47.746;9.000;2023-12-04T11:41:35;33.00;;;13.57;;
3261;SDS011;1643;47.746;9.000;2023-12-04T11:44:02;28.17;;;12.20;;
3261;SDS011;1643;47.746;9.000;2023-12-04T11:46:29;35.10;;;14.73;;
3261;SDS011;1643;47.746;9.000;2023-12-04T11:51:59;29.43;;;12.77;;
3261;SDS011;1643;47.746;9.000;2023-12-04T11:54:27;31.80;;;12.47;;
3261;SDS011;1643;47.746;9.000;2023-12-04T11:57:00;25.87;;;12.30;;
3261;SDS011;1643;47.746;9.000;2023-12-04T11:59:34;23.63;;;12.13;;
3261;SDS011;1643;47.746;9.000;2023-12-04T12:02:02;28.30;;;13.53;;
3261;SDS011;1643;47.746;9.000;2023-12-04T12:04:32;29.90;;;13.10;;
3261;SDS011;1643;47.746;9.000;2023-12-04T12:06:58;35.50;;;13.37;;
3261;SDS011;1643;47.746;9.000;2023-12-04T12:09:27;31.13;;;14.83;;
3261;SDS011;1643;47.746;9.000;2023-12-04T12:11:54;25.07;;;11.40;;
3261;SDS011;1643;47.746;9.000;2023-12-04T12:14:23;43.30;;;19.57;;
3261;SDS011;1643;47.746;9.000;2023-12-04T12:16:48;35.53;;;17.17;;
3261;SDS011;1643;47.746;9.000;2023-12-04T12:19:14;31.70;;;15.97;;
3261;SDS011;1643;47.746;9.000;2023-12-04T12:21:40;29.13;;;14.10;;
3261;SDS011;1643;47.746;9.000;2023-12-04T12:24:06;29.20;;;13.60;;
3261;SDS011;1643;47.746;9.000;2023-12-04T12:26:32;28.60;;;14.77;;
3261;SDS011;1643;47.746;9.000;2023-12-04T12:28:58;27.93;;;14.13;;
3261;SDS011;1643;47.746;9.000;2023-12-04T12:31:24;27.40;;;12.77;;
3261;SDS011;1643;47.746;9.000;2023-12-04T12:33:49;31.13;;;13.57;;
3261;SDS011;1643;47.746;9.000;2023-12-04T12:36:16;24.30;;;12.70;;
3261;SDS011;1643;47.746;9.000;2023-12-04T12:38:43;28.80;;;13.00;;
3261;SDS011;1643;47.746;9.000;2023-12-04T12:41:14;34.00;;;13.40;;
3261;SDS011;1643;47.746;9.000;2023-12-04T12:43:41;29.03;;;12.20;;
3261;SDS011;1643;47.746;9.000;2023-12-04T12:46:07;24.53;;;11.67;;
3261;SDS011;1643;47.746;9.000;2023-12-04T12:48:34;27.80;;;13.50;;
3261;SDS011;1643;47.746;9.000;2023-12-04T12:51:01;23.87;;;12.10;;
3261;SDS011;1643;47.746;9.000;2023-12-04T12:53:28;32.10;;;12.33;;
3261;SDS011;1643;47.746;9.000;2023-12-04T12:55:56;25.17;;;11.30;;
3261;SDS011;1643;47.746;9.000;2023-12-04T12:58:25;27.60;;;11.60;;
3261;SDS011;1643;47.746;9.000;2023-12-04T13:00:50;26.83;;;12.53;;
3261;SDS011;1643;47.746;9.000;2023-12-04T13:03:16;33.57;;;13.30;;
3261;SDS011;1643;47.746;9.000;2023-12-04T13:05:42;35.00;;;17.17;;
3261;SDS011;1643;47.746;9.000;2023-12-04T13:08:08;33.83;;;16.83;;
3261;SDS011;1643;47.746;9.000;2023-12-04T13:10:36;32.90;;;14.20;;
3261;SDS011;1643;47.746;9.000;2023-12-04T13:13:02;25.73;;;12.70;;
3261;SDS011;1643;47.746;9.000;2023-12-04T13:15:28;31.27;;;13.83;;
3261;SDS011;1643;47.746;9.000;2023-12-04T13:17:54;29.87;;;13.97;;
3261;SDS011;1643;47.746;9.000;2023-12-04T13:20:19;34.23;;;14.43;;
3261;SDS011;1643;47.746;9.000;2023-12-04T13:22:45;32.10;;;12.30;;
3261;SDS011;1643;47.746;9.000;2023-12-04T13:25:11;30.17;;;15.00;;
3261;SDS011;1643;47.746;9.000;2023-12-04T13:27:37;27.33;;;13.23;;
3261;SDS011;1643;47.746;9.000;2023-12-04T13:30:06;27.23;;;12.00;;
3261;SDS011;1643;47.746;9.000;2023-12-04T13:32:33;22.83;;;10.13;;
3261;SDS011;1643;47.746;9.000;2023-12-04T13:35:00;28.53;;;12.73;;
3261;SDS011;1643;47.746;9.000;2023-12-04T13:37:26;27.33;;;13.50;;
3261;SDS011;1643;47.746;9.000;2023-12-04T13:39:53;25.33;;;10.73;;
3261;SDS011;1643;47.746;9.000;2023-12-04T13:42:31;29.80;;;13.60;;
3261;SDS011;1643;47.746;9.000;2023-12-04T13:45:16;35.27;;;14.53;;
3261;SDS011;1643;47.746;9.000;2023-12-04T13:47:42;29.83;;;13.30;;
3261;SDS011;1643;47.746;9.000;2023-12-04T13:50:08;36.40;;;14.57;;
3261;SDS011;1643;47.746;9.000;2023-12-04T13:52:35;37.20;;;14.17;;
3261;SDS011;1643;47.746;9.000;2023-12-04T13:55:01;30.23;;;12.53;;
3261;SDS011;1643;47.746;9.000;2023-12-04T13:57:35;31.40;;;13.40;;
3261;SDS011;1643;47.746;9.000;2023-12-04T14:00:09;22.47;;;10.00;;
3261;SDS011;1643;47.746;9.000;2023-12-04T14:02:35;38.13;;;17.07;;
3261;SDS011;1643;47.746;9.000;2023-12-04T14:05:02;38.17;;;17.30;;
3261;SDS011;1643;47.746;9.000;2023-12-04T14:07:28;30.00;;;13.67;;
3261;SDS011;1643;47.746;9.000;2023-12-04T14:09:54;24.43;;;12.77;;
3261;SDS011;1643;47.746;9.000;2023-12-04T14:12:20;27.47;;;12.50;;
3261;SDS011;1643;47.746;9.000;2023-12-04T14:14:46;32.10;;;12.67;;
3261;SDS011;1643;47.746;9.000;2023-12-04T14:17:13;30.93;;;15.07;;
3261;SDS011;1643;47.746;9.000;2023-12-04T14:19:39;28.10;;;12.60;;
3261;SDS011;1643;47.746;9.000;2023-12-04T14:22:05;26.97;;;12.90;;
3261;SDS011;1643;47.746;9.000;2023-12-04T14:24:31;42.77;;;18.30;;
3261;SDS011;1643;47.746;9.000;2023-12-04T14:26:56;30.90;;;13.57;;
3261;SDS011;1643;47.746;9.000;2023-12-04T14:29:22;26.43;;;12.67;;
3261;SDS011;1643;47.746;9.000;2023-12-04T14:31:48;31.97;;;14.63;;
3261;SDS011;1643;47.746;9.000;2023-12-04T14:34:15;29.80;;;12.97;;
3261;SDS011;1643;47.746;9.000;2023-12-04T14:36:40;23.30;;;11.93;;
3261;SDS011;1643;47.746;9.000;2023-12-04T14:39:06;29.93;;;13.40;;
3261;SDS011;1643;47.746;9.000;2023-12-04T14:41:32;28.10;;;13.40;;
3261;SDS011;1643;47.746;9.000;2023-12-04T14:43:57;25.70;;;12.57;;
3261;SDS011;1643;47.746;9.000;2023-12-04T14:46:23;25.03;;;11.90;;
3261;SDS011;1643;47.746;9.000;2023-12-04T14:48:49;25.97;;;12.00;;
3261;SDS011;1643;47.746;9.000;2023-12-04T14:51:15;29.60;;;14.20;;